UAE384 VTBS-VHHH
Flight info
| Callsign | UAE384 |
|---|---|
| Flight time | 2h 8m |
| Altitude | 39000 |
| Route | SELKA1F SELKA A1 SANOT Y15 GUROK A202 VILAO/K0896F390 A202 ASSAD/K0896S1190 A202 SAMAS/K0709S0630 A202 SIKOU/N0481F390 V571 CANTO |
| Aircraft | A388/J-SADE2E3FGHIJ3J4J5M1RWXY/LB1D1 |
Departure
| Time | 2026-05-07 12:32 |
|---|---|
| Airport | Suvarnabhumi Airport (VTBS) |
Arrival
| Time | 2026-05-07 14:40 |
|---|---|
| Airport | Hong Kong International Airport (VHHH) |
| Time | Latitude | Longitude | Altitude | Speed | Heading |
|---|---|---|---|---|---|
| 2026-05-07 11:43 | 13.68147 | 100.74742 | 18 ft | 0 kts | 14° |
| 2026-05-07 12:16 | 13.68142 | 100.74740 | 18 ft | 4 kts | 13° |
| 2026-05-07 12:16 | 13.68116 | 100.74735 | 22 ft | 4 kts | 8° |
| 2026-05-07 12:17 | 13.68091 | 100.74730 | 22 ft | 4 kts | 22° |
| 2026-05-07 12:17 | 13.68078 | 100.74720 | 23 ft | 4 kts | 52° |
| 2026-05-07 12:17 | 13.68068 | 100.74700 | 23 ft | 4 kts | 82° |
| 2026-05-07 12:17 | 13.68070 | 100.74676 | 22 ft | 4 kts | 107° |
| 2026-05-07 12:18 | 13.68075 | 100.74659 | 22 ft | 1 kts | 104° |
| 2026-05-07 12:22 | 13.68069 | 100.74682 | 22 ft | 6 kts | 104° |
| 2026-05-07 12:22 | 13.68051 | 100.74754 | 19 ft | 15 kts | 104° |
| 2026-05-07 12:23 | 13.68024 | 100.74863 | 21 ft | 17 kts | 104° |
| 2026-05-07 12:23 | 13.67994 | 100.74983 | 21 ft | 18 kts | 104° |
| 2026-05-07 12:23 | 13.67961 | 100.75115 | 19 ft | 19 kts | 104° |
| 2026-05-07 12:23 | 13.67927 | 100.75248 | 22 ft | 20 kts | 104° |
| 2026-05-07 12:24 | 13.67899 | 100.75359 | 19 ft | 10 kts | 104° |
| 2026-05-07 12:24 | 13.67875 | 100.75435 | 20 ft | 11 kts | 130° |
| 2026-05-07 12:24 | 13.67806 | 100.75455 | 21 ft | 10 kts | 169° |
| 2026-05-07 12:24 | 13.67776 | 100.75477 | 20 ft | 1 kts | 121° |
| 2026-05-07 12:25 | 13.67776 | 100.75478 | 20 ft | 0 kts | 118° |
| 2026-05-07 12:26 | 13.67775 | 100.75478 | 20 ft | 0 kts | 118° |
| 2026-05-07 12:26 | 13.67769 | 100.75491 | 18 ft | 4 kts | 105° |
| 2026-05-07 12:27 | 13.67772 | 100.75528 | 19 ft | 6 kts | 59° |
| 2026-05-07 12:27 | 13.67814 | 100.75556 | 19 ft | 10 kts | 20° |
| 2026-05-07 12:27 | 13.67896 | 100.75578 | 20 ft | 15 kts | 14° |
| 2026-05-07 12:27 | 13.68009 | 100.75608 | 19 ft | 19 kts | 14° |
| 2026-05-07 12:28 | 13.68147 | 100.75644 | 18 ft | 22 kts | 14° |
| 2026-05-07 12:28 | 13.68294 | 100.75682 | 18 ft | 22 kts | 14° |
| 2026-05-07 12:28 | 13.68451 | 100.75724 | 22 ft | 24 kts | 14° |
| 2026-05-07 12:28 | 13.68613 | 100.75766 | 21 ft | 24 kts | 14° |
| 2026-05-07 12:29 | 13.68778 | 100.75810 | 18 ft | 25 kts | 14° |
| 2026-05-07 12:29 | 13.68947 | 100.75854 | 19 ft | 20 kts | 14° |
| 2026-05-07 12:29 | 13.69059 | 100.75884 | 19 ft | 18 kts | 14° |
| 2026-05-07 12:29 | 13.69162 | 100.75911 | 21 ft | 10 kts | 16° |
| 2026-05-07 12:30 | 13.69203 | 100.75963 | 19 ft | 11 kts | 88° |
| 2026-05-07 12:30 | 13.69183 | 100.76045 | 17 ft | 12 kts | 130° |
| 2026-05-07 12:30 | 13.69108 | 100.76086 | 17 ft | 10 kts | 181° |
| 2026-05-07 12:30 | 13.69090 | 100.76083 | 17 ft | 0 kts | 194° |
| 2026-05-07 12:31 | 13.69082 | 100.76081 | 17 ft | 13 kts | 194° |
| 2026-05-07 12:31 | 13.68694 | 100.75982 | 24 ft | 98 kts | 194° |
| 2026-05-07 12:31 | 13.67823 | 100.75750 | 18 ft | 155 kts | 194° |
| 2026-05-07 12:31 | 13.66764 | 100.75447 | 555 ft | 153 kts | 193° |
| 2026-05-07 12:32 | 13.65724 | 100.75193 | 1097 ft | 156 kts | 187° |
| 2026-05-07 12:32 | 13.64632 | 100.75167 | 1694 ft | 158 kts | 177° |
| 2026-05-07 12:32 | 13.63478 | 100.75228 | 2055 ft | 176 kts | 178° |
| 2026-05-07 12:32 | 13.62189 | 100.75257 | 2312 ft | 194 kts | 179° |
| 2026-05-07 12:33 | 13.59169 | 100.75331 | 2944 ft | 241 kts | 163° |
| 2026-05-07 12:33 | 13.57701 | 100.76227 | 3390 ft | 261 kts | 133° |
| 2026-05-07 12:33 | 13.56796 | 100.77848 | 4155 ft | 266 kts | 105° |
| 2026-05-07 12:34 | 13.56602 | 100.79742 | 5033 ft | 269 kts | 93° |
| 2026-05-07 12:34 | 13.56639 | 100.81669 | 5927 ft | 271 kts | 84° |
| 2026-05-07 12:34 | 13.56902 | 100.83602 | 6757 ft | 275 kts | 82° |
| 2026-05-07 12:34 | 13.57123 | 100.85571 | 7590 ft | 279 kts | 85° |
| 2026-05-07 12:35 | 13.57244 | 100.87567 | 7882 ft | 281 kts | 88° |
| 2026-05-07 12:35 | 13.57281 | 100.89576 | 7990 ft | 282 kts | 90° |
| 2026-05-07 12:35 | 13.57277 | 100.91602 | 8093 ft | 284 kts | 90° |
| 2026-05-07 12:35 | 13.57258 | 100.93639 | 8544 ft | 286 kts | 90° |
| 2026-05-07 12:36 | 13.57238 | 100.95676 | 9423 ft | 285 kts | 90° |
| 2026-05-07 12:36 | 13.57218 | 100.97725 | 10162 ft | 289 kts | 90° |
| 2026-05-07 12:36 | 13.57200 | 100.99846 | 10496 ft | 307 kts | 90° |
| 2026-05-07 12:36 | 13.57424 | 101.02098 | 10682 ft | 328 kts | 75° |
| 2026-05-07 12:37 | 13.58386 | 101.04277 | 11022 ft | 343 kts | 56° |
| 2026-05-07 12:37 | 13.59966 | 101.06133 | 11667 ft | 347 kts | 47° |
| 2026-05-07 12:37 | 13.61630 | 101.07950 | 12328 ft | 350 kts | 48° |
| 2026-05-07 12:37 | 13.63292 | 101.09799 | 13010 ft | 354 kts | 48° |
| 2026-05-07 12:38 | 13.64967 | 101.11670 | 13648 ft | 358 kts | 48° |
| 2026-05-07 12:38 | 13.66660 | 101.13559 | 14219 ft | 361 kts | 48° |
| 2026-05-07 12:38 | 13.68348 | 101.15440 | 14813 ft | 364 kts | 48° |
| 2026-05-07 12:38 | 13.70077 | 101.17363 | 15397 ft | 368 kts | 48° |
| 2026-05-07 12:39 | 13.71820 | 101.19302 | 15981 ft | 371 kts | 48° |
| 2026-05-07 12:39 | 13.73581 | 101.21260 | 16548 ft | 374 kts | 48° |
| 2026-05-07 12:39 | 13.75356 | 101.23234 | 17129 ft | 378 kts | 48° |
| 2026-05-07 12:39 | 13.77150 | 101.25230 | 17687 ft | 381 kts | 48° |
| 2026-05-07 12:40 | 13.78959 | 101.27243 | 18214 ft | 385 kts | 48° |
| 2026-05-07 12:40 | 13.80782 | 101.29273 | 18696 ft | 388 kts | 48° |
| 2026-05-07 12:40 | 13.82618 | 101.31317 | 19168 ft | 390 kts | 48° |
| 2026-05-07 12:40 | 13.84465 | 101.33374 | 19643 ft | 393 kts | 48° |
| 2026-05-07 12:41 | 13.86324 | 101.35445 | 20107 ft | 395 kts | 48° |
| 2026-05-07 12:41 | 13.88197 | 101.37533 | 20587 ft | 398 kts | 48° |
| 2026-05-07 12:41 | 13.90076 | 101.39627 | 21031 ft | 400 kts | 48° |
| 2026-05-07 12:41 | 13.91972 | 101.41741 | 21485 ft | 403 kts | 48° |
| 2026-05-07 12:42 | 13.93876 | 101.43864 | 21937 ft | 405 kts | 48° |
| 2026-05-07 12:42 | 13.95795 | 101.46005 | 22373 ft | 408 kts | 48° |
| 2026-05-07 12:42 | 13.97728 | 101.48162 | 22788 ft | 411 kts | 48° |
| 2026-05-07 12:42 | 13.99673 | 101.50332 | 23205 ft | 413 kts | 48° |
| 2026-05-07 12:43 | 14.01628 | 101.52515 | 23607 ft | 416 kts | 48° |
| 2026-05-07 12:43 | 14.03593 | 101.54709 | 23968 ft | 418 kts | 48° |
| 2026-05-07 12:43 | 14.05570 | 101.56918 | 24315 ft | 420 kts | 48° |
| 2026-05-07 12:43 | 14.07556 | 101.59137 | 24668 ft | 423 kts | 48° |
| 2026-05-07 12:44 | 14.09556 | 101.61372 | 25033 ft | 425 kts | 48° |
| 2026-05-07 12:44 | 14.11563 | 101.63616 | 25378 ft | 427 kts | 48° |
| 2026-05-07 12:44 | 14.13585 | 101.65877 | 25718 ft | 430 kts | 48° |
| 2026-05-07 12:44 | 14.15613 | 101.68145 | 26083 ft | 432 kts | 48° |
| 2026-05-07 12:45 | 14.17660 | 101.70436 | 26406 ft | 436 kts | 48° |
| 2026-05-07 12:45 | 14.19720 | 101.72741 | 26792 ft | 438 kts | 48° |
| 2026-05-07 12:45 | 14.21787 | 101.75056 | 27177 ft | 440 kts | 48° |
| 2026-05-07 12:45 | 14.23870 | 101.77388 | 27557 ft | 443 kts | 47° |
| 2026-05-07 12:46 | 14.25961 | 101.79730 | 27945 ft | 446 kts | 47° |
| 2026-05-07 12:46 | 14.28039 | 101.82060 | 28340 ft | 449 kts | 47° |
| 2026-05-07 12:46 | 14.30160 | 101.84437 | 28730 ft | 453 kts | 47° |
| 2026-05-07 12:46 | 14.32191 | 101.86930 | 29150 ft | 456 kts | 54° |
| 2026-05-07 12:47 | 14.33903 | 101.89692 | 29591 ft | 459 kts | 61° |
| 2026-05-07 12:47 | 14.35271 | 101.92678 | 30016 ft | 463 kts | 68° |
| 2026-05-07 12:47 | 14.36341 | 101.95819 | 30401 ft | 466 kts | 70° |
| 2026-05-07 12:47 | 14.37414 | 101.98994 | 30785 ft | 470 kts | 70° |
| 2026-05-07 12:48 | 14.38150 | 102.01145 | 31053 ft | 472 kts | 70° |
| 2026-05-07 12:48 | 14.39249 | 102.04347 | 31444 ft | 476 kts | 70° |
| 2026-05-07 12:48 | 14.40354 | 102.07578 | 31837 ft | 479 kts | 70° |
| 2026-05-07 12:48 | 14.41465 | 102.10834 | 32228 ft | 483 kts | 70° |
| 2026-05-07 12:49 | 14.42581 | 102.14112 | 32621 ft | 487 kts | 70° |
| 2026-05-07 12:49 | 14.43691 | 102.17372 | 33002 ft | 490 kts | 70° |
| 2026-05-07 12:49 | 14.44822 | 102.20702 | 33387 ft | 494 kts | 70° |
| 2026-05-07 12:49 | 14.45963 | 102.24059 | 33766 ft | 497 kts | 70° |
| 2026-05-07 12:50 | 14.47110 | 102.27437 | 34097 ft | 501 kts | 70° |
| 2026-05-07 12:50 | 14.48263 | 102.30836 | 34464 ft | 503 kts | 70° |
| 2026-05-07 12:50 | 14.49420 | 102.34247 | 34890 ft | 504 kts | 70° |
| 2026-05-07 12:50 | 14.50577 | 102.37661 | 35386 ft | 503 kts | 70° |
| 2026-05-07 12:51 | 14.51731 | 102.41067 | 35897 ft | 502 kts | 70° |
| 2026-05-07 12:51 | 14.52885 | 102.44475 | 36327 ft | 504 kts | 70° |
| 2026-05-07 12:51 | 14.54041 | 102.47891 | 36798 ft | 503 kts | 70° |
| 2026-05-07 12:51 | 14.55193 | 102.51297 | 37301 ft | 503 kts | 70° |
| 2026-05-07 12:52 | 14.56345 | 102.54705 | 37780 ft | 502 kts | 70° |
| 2026-05-07 12:52 | 14.57494 | 102.58105 | 38248 ft | 501 kts | 70° |
| 2026-05-07 12:52 | 14.58641 | 102.61500 | 38694 ft | 501 kts | 70° |
| 2026-05-07 12:52 | 14.59792 | 102.64910 | 38841 ft | 503 kts | 69° |
| 2026-05-07 12:53 | 14.62041 | 102.71581 | 38863 ft | 494 kts | 69° |
| 2026-05-07 12:53 | 14.64311 | 102.78315 | 38862 ft | 499 kts | 69° |
| 2026-05-07 12:54 | 14.66597 | 102.85115 | 38859 ft | 501 kts | 69° |
| 2026-05-07 12:54 | 14.68879 | 102.91912 | 38856 ft | 500 kts | 69° |
| 2026-05-07 12:55 | 14.71157 | 102.98700 | 38855 ft | 500 kts | 69° |
| 2026-05-07 12:55 | 14.73434 | 103.05496 | 38854 ft | 500 kts | 69° |
| 2026-05-07 12:56 | 14.75708 | 103.12289 | 38856 ft | 500 kts | 69° |
| 2026-05-07 12:56 | 14.77981 | 103.19083 | 38846 ft | 501 kts | 69° |
| 2026-05-07 12:57 | 14.80253 | 103.25886 | 38850 ft | 501 kts | 69° |
| 2026-05-07 12:57 | 14.82524 | 103.32692 | 38848 ft | 501 kts | 69° |
| 2026-05-07 12:58 | 14.84973 | 103.39417 | 38847 ft | 499 kts | 63° |
| 2026-05-07 12:58 | 14.88412 | 103.45620 | 38849 ft | 496 kts | 53° |
| 2026-05-07 12:59 | 14.92733 | 103.51158 | 38848 ft | 495 kts | 47° |
| 2026-05-07 12:59 | 14.97211 | 103.56575 | 38848 ft | 495 kts | 47° |
| 2026-05-07 13:00 | 15.01651 | 103.61960 | 38849 ft | 495 kts | 47° |
| 2026-05-07 13:00 | 15.06156 | 103.67418 | 38847 ft | 495 kts | 47° |
| 2026-05-07 13:01 | 15.10600 | 103.72804 | 38847 ft | 495 kts | 47° |
| 2026-05-07 13:01 | 15.15588 | 103.77657 | 38844 ft | 491 kts | 34° |
| 2026-05-07 13:02 | 15.21407 | 103.81293 | 38833 ft | 488 kts | 23° |
| 2026-05-07 13:02 | 15.27634 | 103.84028 | 38848 ft | 486 kts | 21° |
| 2026-05-07 13:03 | 15.33861 | 103.86775 | 38847 ft | 486 kts | 21° |
| 2026-05-07 13:03 | 15.40083 | 103.89513 | 38839 ft | 485 kts | 21° |
| 2026-05-07 13:04 | 15.46300 | 103.92246 | 38836 ft | 485 kts | 21° |
| 2026-05-07 13:04 | 15.52513 | 103.94977 | 38828 ft | 485 kts | 21° |
| 2026-05-07 13:05 | 15.58721 | 103.97709 | 38837 ft | 484 kts | 21° |
| 2026-05-07 13:05 | 15.64916 | 104.00436 | 38832 ft | 484 kts | 21° |
| 2026-05-07 13:06 | 15.71061 | 104.03143 | 38828 ft | 483 kts | 21° |
| 2026-05-07 13:06 | 15.77250 | 104.05872 | 38825 ft | 483 kts | 21° |
| 2026-05-07 13:07 | 15.83430 | 104.08598 | 38820 ft | 482 kts | 21° |
| 2026-05-07 13:07 | 15.89605 | 104.11323 | 38825 ft | 482 kts | 22° |
| 2026-05-07 13:08 | 15.95770 | 104.14046 | 38828 ft | 481 kts | 22° |
| 2026-05-07 13:08 | 16.01867 | 104.16922 | 38827 ft | 482 kts | 28° |
| 2026-05-07 13:09 | 16.07412 | 104.20847 | 38824 ft | 484 kts | 38° |
| 2026-05-07 13:09 | 16.12194 | 104.25786 | 38831 ft | 485 kts | 46° |
| 2026-05-07 13:10 | 16.16736 | 104.30971 | 38834 ft | 485 kts | 46° |
| 2026-05-07 13:10 | 16.21285 | 104.36151 | 38833 ft | 485 kts | 46° |
| 2026-05-07 13:11 | 16.25803 | 104.41315 | 38818 ft | 486 kts | 46° |
| 2026-05-07 13:11 | 16.30334 | 104.46533 | 38825 ft | 486 kts | 46° |
| 2026-05-07 13:12 | 16.34846 | 104.51786 | 38837 ft | 487 kts | 46° |
| 2026-05-07 13:12 | 16.39363 | 104.57040 | 38847 ft | 487 kts | 46° |
| 2026-05-07 13:13 | 16.43888 | 104.62302 | 38864 ft | 488 kts | 46° |
| 2026-05-07 13:13 | 16.48416 | 104.67570 | 38878 ft | 489 kts | 46° |
| 2026-05-07 13:14 | 16.52955 | 104.72856 | 38880 ft | 490 kts | 46° |
| 2026-05-07 13:14 | 16.57273 | 104.78390 | 38860 ft | 494 kts | 54° |
| 2026-05-07 13:15 | 16.60996 | 104.84428 | 38875 ft | 496 kts | 56° |
| 2026-05-07 13:15 | 16.64740 | 104.90483 | 38881 ft | 498 kts | 56° |
| 2026-05-07 13:16 | 16.68469 | 104.96526 | 38871 ft | 500 kts | 55° |
| 2026-05-07 13:16 | 16.72233 | 105.02639 | 38870 ft | 501 kts | 55° |
| 2026-05-07 13:17 | 16.76001 | 105.08766 | 38877 ft | 502 kts | 55° |
| 2026-05-07 13:17 | 16.79770 | 105.14900 | 38877 ft | 502 kts | 55° |
| 2026-05-07 13:18 | 16.83536 | 105.21036 | 38874 ft | 502 kts | 55° |
| 2026-05-07 13:18 | 16.87299 | 105.27174 | 38872 ft | 502 kts | 55° |
| 2026-05-07 13:19 | 16.91055 | 105.33315 | 38871 ft | 502 kts | 55° |
| 2026-05-07 13:19 | 16.94808 | 105.39456 | 38876 ft | 501 kts | 55° |
| 2026-05-07 13:20 | 16.98557 | 105.45595 | 38875 ft | 501 kts | 55° |
| 2026-05-07 13:20 | 17.02304 | 105.51737 | 38874 ft | 501 kts | 55° |
| 2026-05-07 13:21 | 17.06047 | 105.57877 | 38877 ft | 501 kts | 55° |
| 2026-05-07 13:21 | 17.09788 | 105.64020 | 38875 ft | 501 kts | 55° |
| 2026-05-07 13:22 | 17.13528 | 105.70166 | 38862 ft | 502 kts | 55° |
| 2026-05-07 13:22 | 17.17250 | 105.76289 | 38859 ft | 502 kts | 55° |
| 2026-05-07 13:23 | 17.20995 | 105.82455 | 38872 ft | 502 kts | 55° |
| 2026-05-07 13:23 | 17.24740 | 105.88626 | 38879 ft | 503 kts | 55° |
| 2026-05-07 13:24 | 17.28489 | 105.94811 | 38898 ft | 503 kts | 55° |
| 2026-05-07 13:24 | 17.32239 | 106.01000 | 38903 ft | 504 kts | 55° |
| 2026-05-07 13:25 | 17.35988 | 106.07196 | 38922 ft | 504 kts | 55° |
| 2026-05-07 13:25 | 17.39763 | 106.13372 | 38919 ft | 503 kts | 55° |
| 2026-05-07 13:26 | 17.43571 | 106.19525 | 38925 ft | 503 kts | 55° |
| 2026-05-07 13:26 | 17.47370 | 106.25685 | 38917 ft | 503 kts | 55° |
| 2026-05-07 13:27 | 17.51134 | 106.31803 | 38915 ft | 503 kts | 55° |
| 2026-05-07 13:27 | 17.54949 | 106.38009 | 38904 ft | 503 kts | 55° |
| 2026-05-07 13:28 | 17.58710 | 106.44133 | 38905 ft | 503 kts | 55° |
| 2026-05-07 13:28 | 17.62492 | 106.50298 | 38894 ft | 502 kts | 55° |
| 2026-05-07 13:29 | 17.66270 | 106.56461 | 38893 ft | 502 kts | 55° |
| 2026-05-07 13:29 | 17.70042 | 106.62624 | 38890 ft | 502 kts | 55° |
| 2026-05-07 13:30 | 17.73801 | 106.68794 | 38884 ft | 502 kts | 55° |
| 2026-05-07 13:30 | 17.77555 | 106.74963 | 38875 ft | 502 kts | 55° |
| 2026-05-07 13:31 | 17.81312 | 106.81136 | 38873 ft | 502 kts | 55° |
| 2026-05-07 13:31 | 17.85065 | 106.87311 | 38873 ft | 502 kts | 55° |
| 2026-05-07 13:32 | 17.88815 | 106.93486 | 38875 ft | 502 kts | 55° |
| 2026-05-07 13:32 | 17.92579 | 106.99652 | 38872 ft | 502 kts | 54° |
| 2026-05-07 13:33 | 17.96348 | 107.05817 | 38878 ft | 502 kts | 54° |
| 2026-05-07 13:33 | 18.00116 | 107.11993 | 38869 ft | 502 kts | 54° |
| 2026-05-07 13:34 | 18.05742 | 107.21228 | 38872 ft | 503 kts | 54° |
| 2026-05-07 13:35 | 18.09511 | 107.27424 | 38875 ft | 503 kts | 54° |
| 2026-05-07 13:35 | 18.13276 | 107.33629 | 38878 ft | 503 kts | 54° |
| 2026-05-07 13:36 | 18.17039 | 107.39834 | 38886 ft | 503 kts | 54° |
| 2026-05-07 13:36 | 18.20805 | 107.46051 | 38874 ft | 504 kts | 55° |
| 2026-05-07 13:37 | 18.24574 | 107.52278 | 38877 ft | 505 kts | 55° |
| 2026-05-07 13:37 | 18.28348 | 107.58519 | 38885 ft | 506 kts | 55° |
| 2026-05-07 13:38 | 18.32123 | 107.64768 | 38898 ft | 506 kts | 55° |
| 2026-05-07 13:38 | 18.36205 | 107.70764 | 38900 ft | 502 kts | 47° |
| 2026-05-07 13:39 | 18.40687 | 107.76411 | 38904 ft | 502 kts | 47° |
| 2026-05-07 13:39 | 18.45142 | 107.82081 | 38902 ft | 502 kts | 48° |
| 2026-05-07 13:40 | 18.48842 | 107.86789 | 38902 ft | 502 kts | 47° |
| 2026-05-07 13:40 | 18.54020 | 107.93377 | 38906 ft | 502 kts | 47° |
| 2026-05-07 13:41 | 18.58465 | 107.99038 | 38908 ft | 501 kts | 47° |
| 2026-05-07 13:41 | 18.62909 | 108.04703 | 38908 ft | 501 kts | 47° |
| 2026-05-07 13:42 | 18.66628 | 108.09446 | 38908 ft | 501 kts | 47° |
| 2026-05-07 13:42 | 18.71064 | 108.15110 | 38909 ft | 500 kts | 47° |
| 2026-05-07 13:43 | 18.75466 | 108.20736 | 38901 ft | 500 kts | 47° |
| 2026-05-07 13:43 | 18.79891 | 108.26396 | 38903 ft | 500 kts | 47° |
| 2026-05-07 13:44 | 18.84313 | 108.32057 | 38897 ft | 500 kts | 47° |
| 2026-05-07 13:44 | 18.88730 | 108.37717 | 38892 ft | 500 kts | 47° |
| 2026-05-07 13:45 | 18.93150 | 108.43386 | 38890 ft | 500 kts | 47° |
| 2026-05-07 13:45 | 18.97566 | 108.49054 | 38884 ft | 500 kts | 47° |
| 2026-05-07 13:46 | 19.01980 | 108.54726 | 38892 ft | 500 kts | 47° |
| 2026-05-07 13:46 | 19.06394 | 108.60403 | 38894 ft | 500 kts | 47° |
| 2026-05-07 13:47 | 19.10807 | 108.66083 | 38894 ft | 500 kts | 47° |
| 2026-05-07 13:47 | 19.15220 | 108.71769 | 38900 ft | 500 kts | 47° |
| 2026-05-07 13:48 | 19.19634 | 108.77462 | 38889 ft | 501 kts | 47° |
| 2026-05-07 13:48 | 19.24050 | 108.83163 | 38898 ft | 501 kts | 47° |
| 2026-05-07 13:49 | 19.28463 | 108.88863 | 38894 ft | 501 kts | 47° |
| 2026-05-07 13:49 | 19.32851 | 108.94537 | 38897 ft | 501 kts | 47° |
| 2026-05-07 13:50 | 19.37266 | 109.00251 | 38899 ft | 501 kts | 47° |
| 2026-05-07 13:50 | 19.41678 | 109.05966 | 38898 ft | 501 kts | 47° |
| 2026-05-07 13:51 | 19.46089 | 109.11685 | 38914 ft | 501 kts | 47° |
| 2026-05-07 13:51 | 19.50501 | 109.17411 | 38898 ft | 501 kts | 48° |
| 2026-05-07 13:52 | 19.54904 | 109.23155 | 38901 ft | 502 kts | 48° |
| 2026-05-07 13:52 | 19.59276 | 109.28912 | 38904 ft | 501 kts | 48° |
| 2026-05-07 13:53 | 19.63651 | 109.34674 | 38908 ft | 501 kts | 48° |
| 2026-05-07 13:53 | 19.68024 | 109.40433 | 38902 ft | 501 kts | 48° |
| 2026-05-07 13:54 | 19.72398 | 109.46199 | 38908 ft | 501 kts | 48° |
| 2026-05-07 13:54 | 19.76774 | 109.51972 | 38882 ft | 502 kts | 49° |
| 2026-05-07 13:55 | 19.81149 | 109.57749 | 38884 ft | 502 kts | 49° |
| 2026-05-07 13:55 | 19.85528 | 109.63537 | 38883 ft | 503 kts | 49° |
| 2026-05-07 13:56 | 19.89905 | 109.69330 | 38900 ft | 503 kts | 49° |
| 2026-05-07 13:56 | 19.94275 | 109.75118 | 38905 ft | 503 kts | 49° |
| 2026-05-07 13:57 | 19.98624 | 109.80885 | 38910 ft | 503 kts | 49° |
| 2026-05-07 13:57 | 20.02998 | 109.86690 | 38896 ft | 503 kts | 49° |
| 2026-05-07 13:58 | 20.07374 | 109.92503 | 38898 ft | 503 kts | 49° |
| 2026-05-07 13:58 | 20.11744 | 109.98315 | 38921 ft | 503 kts | 49° |
| 2026-05-07 13:59 | 20.16117 | 110.04136 | 38926 ft | 503 kts | 49° |
| 2026-05-07 13:59 | 20.20486 | 110.09956 | 38930 ft | 503 kts | 49° |
| 2026-05-07 14:00 | 20.24856 | 110.15786 | 38939 ft | 503 kts | 49° |
| 2026-05-07 14:00 | 20.29219 | 110.21611 | 38935 ft | 503 kts | 49° |
| 2026-05-07 14:01 | 20.33617 | 110.27424 | 38936 ft | 503 kts | 48° |
| 2026-05-07 14:01 | 20.38052 | 110.33197 | 38917 ft | 503 kts | 48° |
| 2026-05-07 14:02 | 20.42479 | 110.38978 | 38920 ft | 504 kts | 48° |
| 2026-05-07 14:02 | 20.46879 | 110.44782 | 38918 ft | 504 kts | 51° |
| 2026-05-07 14:03 | 20.50626 | 110.51138 | 38936 ft | 508 kts | 60° |
| 2026-05-07 14:03 | 20.53377 | 110.58036 | 38946 ft | 510 kts | 68° |
| 2026-05-07 14:04 | 20.55775 | 110.65162 | 38942 ft | 510 kts | 68° |
| 2026-05-07 14:04 | 20.58185 | 110.72273 | 38944 ft | 509 kts | 68° |
| 2026-05-07 14:05 | 20.60582 | 110.79389 | 38937 ft | 509 kts | 68° |
| 2026-05-07 14:05 | 20.62972 | 110.86507 | 38934 ft | 509 kts | 68° |
| 2026-05-07 14:06 | 20.65360 | 110.93621 | 38929 ft | 509 kts | 68° |
| 2026-05-07 14:06 | 20.67765 | 111.00721 | 38928 ft | 509 kts | 68° |
| 2026-05-07 14:07 | 20.70167 | 111.07823 | 38923 ft | 509 kts | 68° |
| 2026-05-07 14:07 | 20.72566 | 111.14932 | 38933 ft | 508 kts | 68° |
| 2026-05-07 14:08 | 20.74961 | 111.22044 | 38924 ft | 509 kts | 68° |
| 2026-05-07 14:08 | 20.77354 | 111.29162 | 38925 ft | 509 kts | 68° |
| 2026-05-07 14:09 | 20.79748 | 111.36291 | 38924 ft | 509 kts | 68° |
| 2026-05-07 14:09 | 20.82138 | 111.43422 | 38930 ft | 510 kts | 68° |
| 2026-05-07 14:10 | 20.84527 | 111.50559 | 38934 ft | 510 kts | 68° |
| 2026-05-07 14:10 | 20.86934 | 111.57691 | 38935 ft | 510 kts | 68° |
| 2026-05-07 14:11 | 20.89349 | 111.64822 | 38933 ft | 510 kts | 68° |
| 2026-05-07 14:11 | 20.91758 | 111.71962 | 38935 ft | 510 kts | 68° |
| 2026-05-07 14:12 | 20.94165 | 111.79110 | 38942 ft | 511 kts | 68° |
| 2026-05-07 14:12 | 20.96568 | 111.86257 | 38942 ft | 511 kts | 68° |
| 2026-05-07 14:13 | 20.98969 | 111.93411 | 38948 ft | 511 kts | 68° |
| 2026-05-07 14:13 | 21.01368 | 112.00567 | 38948 ft | 511 kts | 68° |
| 2026-05-07 14:14 | 21.03763 | 112.07725 | 38949 ft | 511 kts | 68° |
| 2026-05-07 14:14 | 21.06139 | 112.14839 | 38954 ft | 511 kts | 68° |
| 2026-05-07 14:15 | 21.08525 | 112.21992 | 38951 ft | 510 kts | 68° |
| 2026-05-07 14:15 | 21.10907 | 112.29147 | 38954 ft | 510 kts | 68° |
| 2026-05-07 14:16 | 21.13286 | 112.36302 | 38950 ft | 510 kts | 68° |
| 2026-05-07 14:16 | 21.14469 | 112.39868 | 38829 ft | 506 kts | 68° |
| 2026-05-07 14:16 | 21.15641 | 112.43402 | 38601 ft | 501 kts | 68° |
| 2026-05-07 14:16 | 21.16804 | 112.46909 | 38334 ft | 500 kts | 68° |
| 2026-05-07 14:17 | 21.17966 | 112.50414 | 38055 ft | 500 kts | 68° |
| 2026-05-07 14:17 | 21.19132 | 112.53933 | 37450 ft | 501 kts | 68° |
| 2026-05-07 14:17 | 21.20299 | 112.57460 | 36567 ft | 504 kts | 68° |
| 2026-05-07 14:17 | 21.21478 | 112.61023 | 35530 ft | 511 kts | 68° |
| 2026-05-07 14:18 | 21.22672 | 112.64635 | 34529 ft | 517 kts | 69° |
| 2026-05-07 14:18 | 21.23870 | 112.68265 | 33823 ft | 515 kts | 69° |
| 2026-05-07 14:18 | 21.25054 | 112.71860 | 33309 ft | 507 kts | 69° |
| 2026-05-07 14:18 | 21.26219 | 112.75401 | 32758 ft | 501 kts | 69° |
| 2026-05-07 14:19 | 21.27375 | 112.78915 | 32112 ft | 497 kts | 69° |
| 2026-05-07 14:19 | 21.28522 | 112.82399 | 31423 ft | 495 kts | 69° |
| 2026-05-07 14:19 | 21.29671 | 112.85894 | 30588 ft | 498 kts | 70° |
| 2026-05-07 14:19 | 21.30816 | 112.89377 | 30078 ft | 492 kts | 70° |
| 2026-05-07 14:20 | 21.31942 | 112.92807 | 29525 ft | 485 kts | 70° |
| 2026-05-07 14:20 | 21.33040 | 112.96157 | 28919 ft | 480 kts | 70° |
| 2026-05-07 14:20 | 21.34141 | 112.99517 | 28291 ft | 476 kts | 70° |
| 2026-05-07 14:20 | 21.35233 | 113.02851 | 27671 ft | 471 kts | 69° |
| 2026-05-07 14:21 | 21.36328 | 113.06199 | 27002 ft | 468 kts | 69° |
| 2026-05-07 14:21 | 21.37410 | 113.09507 | 26137 ft | 471 kts | 69° |
| 2026-05-07 14:21 | 21.38474 | 113.12761 | 25628 ft | 465 kts | 69° |
| 2026-05-07 14:21 | 21.39528 | 113.15993 | 25218 ft | 455 kts | 69° |
| 2026-05-07 14:22 | 21.40573 | 113.19195 | 24459 ft | 455 kts | 69° |
| 2026-05-07 14:22 | 21.41622 | 113.22410 | 23801 ft | 455 kts | 69° |
| 2026-05-07 14:22 | 21.42658 | 113.25588 | 23307 ft | 447 kts | 69° |
| 2026-05-07 14:22 | 21.43680 | 113.28728 | 22561 ft | 445 kts | 69° |
| 2026-05-07 14:23 | 21.44700 | 113.31859 | 21885 ft | 442 kts | 69° |
| 2026-05-07 14:23 | 21.45702 | 113.34942 | 21473 ft | 432 kts | 69° |
| 2026-05-07 14:23 | 21.46688 | 113.37977 | 20854 ft | 429 kts | 69° |
| 2026-05-07 14:23 | 21.47673 | 113.41009 | 20023 ft | 432 kts | 69° |
| 2026-05-07 14:24 | 21.48656 | 113.44037 | 19532 ft | 425 kts | 70° |
| 2026-05-07 14:24 | 21.49617 | 113.47001 | 19084 ft | 418 kts | 70° |
| 2026-05-07 14:24 | 21.50577 | 113.49961 | 18272 ft | 422 kts | 70° |
| 2026-05-07 14:24 | 21.51536 | 113.52923 | 17756 ft | 416 kts | 70° |
| 2026-05-07 14:25 | 21.52512 | 113.55806 | 17243 ft | 407 kts | 65° |
| 2026-05-07 14:25 | 21.53874 | 113.58444 | 16659 ft | 401 kts | 54° |
| 2026-05-07 14:25 | 21.55660 | 113.60747 | 15829 ft | 403 kts | 43° |
| 2026-05-07 14:25 | 21.57668 | 113.62809 | 15369 ft | 395 kts | 43° |
| 2026-05-07 14:26 | 21.59600 | 113.64848 | 14965 ft | 386 kts | 43° |
| 2026-05-07 14:26 | 21.61502 | 113.66875 | 14225 ft | 388 kts | 44° |
| 2026-05-07 14:26 | 21.63411 | 113.68912 | 13715 ft | 383 kts | 44° |
| 2026-05-07 14:26 | 21.65279 | 113.70906 | 13263 ft | 375 kts | 44° |
| 2026-05-07 14:27 | 21.67155 | 113.72824 | 12730 ft | 370 kts | 41° |
| 2026-05-07 14:27 | 21.69072 | 113.74679 | 12056 ft | 370 kts | 40° |
| 2026-05-07 14:27 | 21.70980 | 113.76504 | 11504 ft | 365 kts | 40° |
| 2026-05-07 14:27 | 21.72860 | 113.78316 | 11096 ft | 360 kts | 41° |
| 2026-05-07 14:28 | 21.74707 | 113.80109 | 10968 ft | 357 kts | 41° |
| 2026-05-07 14:28 | 21.76546 | 113.81902 | 10911 ft | 357 kts | 41° |
| 2026-05-07 14:28 | 21.78384 | 113.83698 | 10649 ft | 357 kts | 41° |
| 2026-05-07 14:28 | 21.80232 | 113.85505 | 10020 ft | 361 kts | 41° |
| 2026-05-07 14:29 | 21.82100 | 113.87327 | 9197 ft | 361 kts | 39° |
| 2026-05-07 14:29 | 21.84181 | 113.88674 | 8874 ft | 339 kts | 17° |
| 2026-05-07 14:29 | 21.86411 | 113.89065 | 8682 ft | 315 kts | 355° |
| 2026-05-07 14:29 | 21.88480 | 113.88641 | 8474 ft | 294 kts | 337° |
| 2026-05-07 14:30 | 21.89706 | 113.88061 | 8087 ft | 290 kts | 333° |
| 2026-05-07 14:30 | 21.92120 | 113.86833 | 7298 ft | 289 kts | 333° |
| 2026-05-07 14:30 | 21.93937 | 113.85925 | 6741 ft | 287 kts | 334° |
| 2026-05-07 14:30 | 21.95743 | 113.85026 | 6170 ft | 285 kts | 334° |
| 2026-05-07 14:31 | 21.97536 | 113.84136 | 5640 ft | 281 kts | 334° |
| 2026-05-07 14:31 | 21.99299 | 113.83260 | 5427 ft | 278 kts | 334° |
| 2026-05-07 14:31 | 22.00490 | 113.82668 | 5244 ft | 281 kts | 334° |
| 2026-05-07 14:31 | 22.02229 | 113.81801 | 4901 ft | 279 kts | 334° |
| 2026-05-07 14:32 | 22.03988 | 113.80925 | 4450 ft | 278 kts | 335° |
| 2026-05-07 14:32 | 22.05741 | 113.80053 | 3969 ft | 278 kts | 334° |
| 2026-05-07 14:32 | 22.07491 | 113.79181 | 3503 ft | 277 kts | 334° |
| 2026-05-07 14:32 | 22.09239 | 113.78308 | 3113 ft | 275 kts | 334° |
| 2026-05-07 14:33 | 22.10962 | 113.77450 | 3022 ft | 268 kts | 334° |
| 2026-05-07 14:33 | 22.12614 | 113.76627 | 3001 ft | 253 kts | 334° |
| 2026-05-07 14:33 | 22.14154 | 113.75859 | 2984 ft | 235 kts | 334° |
| 2026-05-07 14:33 | 22.15586 | 113.75145 | 2955 ft | 221 kts | 334° |
| 2026-05-07 14:34 | 22.16956 | 113.74462 | 2866 ft | 211 kts | 334° |
| 2026-05-07 14:34 | 22.18196 | 113.73845 | 2764 ft | 183 kts | 334° |
| 2026-05-07 14:34 | 22.19320 | 113.73285 | 2344 ft | 176 kts | 334° |
| 2026-05-07 14:34 | 22.20430 | 113.72731 | 2056 ft | 176 kts | 334° |
| 2026-05-07 14:35 | 22.21544 | 113.72172 | 1993 ft | 176 kts | 334° |
| 2026-05-07 14:35 | 22.22668 | 113.71640 | 1986 ft | 177 kts | 345° |
| 2026-05-07 14:35 | 22.23869 | 113.71748 | 1997 ft | 176 kts | 29° |
| 2026-05-07 14:35 | 22.24844 | 113.72551 | 1998 ft | 179 kts | 43° |
| 2026-05-07 14:36 | 22.25783 | 113.73436 | 1986 ft | 179 kts | 43° |
| 2026-05-07 14:36 | 22.26720 | 113.74318 | 1992 ft | 178 kts | 42° |
| 2026-05-07 14:36 | 22.27614 | 113.75240 | 1988 ft | 176 kts | 53° |
| 2026-05-07 14:36 | 22.28246 | 113.76347 | 1996 ft | 173 kts | 66° |
| 2026-05-07 14:37 | 22.28709 | 113.77546 | 1996 ft | 174 kts | 71° |
| 2026-05-07 14:37 | 22.29497 | 113.79950 | 1594 ft | 157 kts | 72° |
| 2026-05-07 14:37 | 22.29844 | 113.81025 | 1392 ft | 148 kts | 72° |
| 2026-05-07 14:38 | 22.30175 | 113.82061 | 1200 ft | 144 kts | 72° |
| 2026-05-07 14:38 | 22.30505 | 113.83085 | 1025 ft | 143 kts | 73° |
| 2026-05-07 14:38 | 22.30832 | 113.84106 | 842 ft | 143 kts | 73° |
| 2026-05-07 14:38 | 22.31155 | 113.85110 | 672 ft | 141 kts | 72° |
| 2026-05-07 14:39 | 22.31472 | 113.86099 | 485 ft | 139 kts | 72° |
| 2026-05-07 14:39 | 22.31789 | 113.87077 | 297 ft | 136 kts | 72° |
| 2026-05-07 14:39 | 22.32097 | 113.88027 | 108 ft | 133 kts | 72° |
| 2026-05-07 14:39 | 22.32392 | 113.88944 | 38 ft | 119 kts | 72° |
| 2026-05-07 14:40 | 22.32598 | 113.89596 | 37 ft | 61 kts | 70° |
| 2026-05-07 14:40 | 22.32698 | 113.89923 | 37 ft | 35 kts | 76° |
| 2026-05-07 14:40 | 22.32697 | 113.90112 | 37 ft | 15 kts | 103° |
| 2026-05-07 14:40 | 22.32674 | 113.90223 | 37 ft | 15 kts | 102° |
| 2026-05-07 14:41 | 22.32652 | 113.90335 | 37 ft | 14 kts | 115° |
| 2026-05-07 14:41 | 22.32573 | 113.90394 | 37 ft | 15 kts | 161° |
| 2026-05-07 14:41 | 22.32467 | 113.90432 | 36 ft | 17 kts | 161° |
| 2026-05-07 14:41 | 22.32345 | 113.90476 | 37 ft | 19 kts | 159° |
| 2026-05-07 14:42 | 22.32214 | 113.90529 | 37 ft | 21 kts | 159° |
| 2026-05-07 14:42 | 22.32075 | 113.90581 | 37 ft | 22 kts | 162° |
| 2026-05-07 14:42 | 22.31929 | 113.90634 | 37 ft | 22 kts | 160° |
| 2026-05-07 14:42 | 22.31782 | 113.90689 | 37 ft | 20 kts | 161° |
| 2026-05-07 14:43 | 22.31704 | 113.90718 | 37 ft | 12 kts | 161° |
| 2026-05-07 14:43 | 22.31617 | 113.90752 | 37 ft | 13 kts | 154° |
| 2026-05-07 14:43 | 22.31595 | 113.90804 | 37 ft | 8 kts | 75° |
| 2026-05-07 14:43 | 22.31620 | 113.90874 | 37 ft | 12 kts | 68° |
| 2026-05-07 14:44 | 22.31654 | 113.90963 | 37 ft | 14 kts | 68° |
| 2026-05-07 14:44 | 22.31688 | 113.91068 | 37 ft | 16 kts | 73° |
| 2026-05-07 14:44 | 22.31721 | 113.91184 | 37 ft | 17 kts | 72° |
| 2026-05-07 14:44 | 22.31759 | 113.91308 | 37 ft | 18 kts | 71° |
| 2026-05-07 14:45 | 22.31800 | 113.91437 | 37 ft | 19 kts | 71° |
| 2026-05-07 14:45 | 22.31844 | 113.91571 | 37 ft | 19 kts | 71° |
| 2026-05-07 14:45 | 22.31888 | 113.91709 | 37 ft | 20 kts | 71° |
| 2026-05-07 14:45 | 22.31932 | 113.91849 | 37 ft | 20 kts | 71° |
| 2026-05-07 14:46 | 22.31978 | 113.91991 | 37 ft | 20 kts | 71° |
| 2026-05-07 14:46 | 22.32025 | 113.92135 | 37 ft | 20 kts | 71° |
| 2026-05-07 14:46 | 22.32071 | 113.92280 | 37 ft | 20 kts | 71° |
| 2026-05-07 14:46 | 22.32117 | 113.92423 | 37 ft | 21 kts | 71° |
| 2026-05-07 14:47 | 22.32164 | 113.92568 | 37 ft | 21 kts | 71° |
| 2026-05-07 14:47 | 22.32180 | 113.92674 | 37 ft | 11 kts | 119° |
| 2026-05-07 14:47 | 22.32109 | 113.92718 | 39 ft | 12 kts | 160° |